sensor_id;sensor_type;location;lat;lon;timestamp;P1;durP1;ratioP1;P2;durP2;ratioP2
54143;SDS011;40050;47.324;18.792;2022-10-23T00:00:13;19.58;;;12.37;;
54143;SDS011;40050;47.324;18.792;2022-10-23T00:02:14;19.48;;;12.66;;
54143;SDS011;40050;47.324;18.792;2022-10-23T00:04:18;20.44;;;13.56;;
54143;SDS011;40050;47.324;18.792;2022-10-23T00:06:17;19.93;;;12.79;;
54143;SDS011;40050;47.324;18.792;2022-10-23T00:08:25;21.14;;;13.15;;
54143;SDS011;40050;47.324;18.792;2022-10-23T00:10:27;20.22;;;13.11;;
54143;SDS011;40050;47.324;18.792;2022-10-23T00:12:26;18.28;;;12.07;;
54143;SDS011;40050;47.324;18.792;2022-10-23T00:14:29;20.47;;;11.42;;
54143;SDS011;40050;47.324;18.792;2022-10-23T00:16:30;20.34;;;12.20;;
54143;SDS011;40050;47.324;18.792;2022-10-23T00:18:30;18.66;;;12.30;;
54143;SDS011;40050;47.324;18.792;2022-10-23T00:20:31;18.94;;;12.49;;
54143;SDS011;40050;47.324;18.792;2022-10-23T00:22:32;20.52;;;12.78;;
54143;SDS011;40050;47.324;18.792;2022-10-23T00:24:34;21.12;;;13.45;;
54143;SDS011;40050;47.324;18.792;2022-10-23T00:26:35;20.70;;;13.24;;
54143;SDS011;40050;47.324;18.792;2022-10-23T00:28:36;18.27;;;12.26;;
54143;SDS011;40050;47.324;18.792;2022-10-23T00:30:37;19.23;;;12.74;;
54143;SDS011;40050;47.324;18.792;2022-10-23T00:32:38;20.62;;;12.84;;
54143;SDS011;40050;47.324;18.792;2022-10-23T00:34:39;18.55;;;12.63;;
54143;SDS011;40050;47.324;18.792;2022-10-23T00:36:41;22.08;;;13.96;;
54143;SDS011;40050;47.324;18.792;2022-10-23T00:38:42;19.26;;;12.80;;
54143;SDS011;40050;47.324;18.792;2022-10-23T00:40:43;21.07;;;13.75;;
54143;SDS011;40050;47.324;18.792;2022-10-23T00:42:46;22.46;;;14.23;;
54143;SDS011;40050;47.324;18.792;2022-10-23T00:45:16;21.94;;;14.14;;
54143;SDS011;40050;47.324;18.792;2022-10-23T00:47:03;22.42;;;14.32;;
54143;SDS011;40050;47.324;18.792;2022-10-23T00:49:04;21.63;;;14.13;;
54143;SDS011;40050;47.324;18.792;2022-10-23T00:51:05;24.34;;;14.52;;
54143;SDS011;40050;47.324;18.792;2022-10-23T00:53:07;23.65;;;15.19;;
54143;SDS011;40050;47.324;18.792;2022-10-23T00:55:09;24.17;;;15.74;;
54143;SDS011;40050;47.324;18.792;2022-10-23T00:57:12;26.39;;;15.54;;
54143;SDS011;40050;47.324;18.792;2022-10-23T00:59:12;21.33;;;14.50;;
54143;SDS011;40050;47.324;18.792;2022-10-23T01:01:16;22.43;;;14.52;;
54143;SDS011;40050;47.324;18.792;2022-10-23T01:03:17;21.31;;;13.94;;
54143;SDS011;40050;47.324;18.792;2022-10-23T01:05:18;20.75;;;13.48;;
54143;SDS011;40050;47.324;18.792;2022-10-23T01:07:58;20.62;;;13.68;;
54143;SDS011;40050;47.324;18.792;2022-10-23T01:10:07;20.23;;;12.83;;
54143;SDS011;40050;47.324;18.792;2022-10-23T01:12:07;19.20;;;12.73;;
54143;SDS011;40050;47.324;18.792;2022-10-23T01:14:20;19.17;;;12.56;;
54143;SDS011;40050;47.324;18.792;2022-10-23T01:16:20;18.62;;;12.67;;
54143;SDS011;40050;47.324;18.792;2022-10-23T01:21:07;18.53;;;12.31;;
54143;SDS011;40050;47.324;18.792;2022-10-23T01:27:51;17.66;;;11.25;;
54143;SDS011;40050;47.324;18.792;2022-10-23T01:30:12;16.98;;;11.74;;
54143;SDS011;40050;47.324;18.792;2022-10-23T01:32:14;15.04;;;10.39;;
54143;SDS011;40050;47.324;18.792;2022-10-23T01:34:19;15.99;;;11.06;;
54143;SDS011;40050;47.324;18.792;2022-10-23T01:36:25;15.46;;;10.48;;
54143;SDS011;40050;47.324;18.792;2022-10-23T01:38:32;17.24;;;10.96;;
54143;SDS011;40050;47.324;18.792;2022-10-23T01:40:48;16.53;;;10.38;;
54143;SDS011;40050;47.324;18.792;2022-10-23T01:42:43;13.82;;;9.91;;
54143;SDS011;40050;47.324;18.792;2022-10-23T01:45:12;17.75;;;10.10;;
54143;SDS011;40050;47.324;18.792;2022-10-23T01:47:04;14.36;;;9.71;;
54143;SDS011;40050;47.324;18.792;2022-10-23T01:49:06;14.94;;;10.09;;
54143;SDS011;40050;47.324;18.792;2022-10-23T01:51:06;14.52;;;9.98;;
54143;SDS011;40050;47.324;18.792;2022-10-23T01:53:07;16.51;;;10.74;;
54143;SDS011;40050;47.324;18.792;2022-10-23T01:55:11;15.35;;;10.54;;
54143;SDS011;40050;47.324;18.792;2022-10-23T01:57:14;13.36;;;9.69;;
54143;SDS011;40050;47.324;18.792;2022-10-23T01:59:20;13.53;;;9.32;;
54143;SDS011;40050;47.324;18.792;2022-10-23T02:01:19;14.67;;;9.32;;
54143;SDS011;40050;47.324;18.792;2022-10-23T02:03:20;12.37;;;8.74;;
54143;SDS011;40050;47.324;18.792;2022-10-23T02:05:36;12.65;;;9.03;;
54143;SDS011;40050;47.324;18.792;2022-10-23T02:07:37;12.56;;;9.03;;
54143;SDS011;40050;47.324;18.792;2022-10-23T02:09:38;15.27;;;9.89;;
54143;SDS011;40050;47.324;18.792;2022-10-23T02:11:50;17.99;;;11.14;;
54143;SDS011;40050;47.324;18.792;2022-10-23T02:18:33;17.87;;;11.11;;
54143;SDS011;40050;47.324;18.792;2022-10-23T02:20:28;17.59;;;11.38;;
54143;SDS011;40050;47.324;18.792;2022-10-23T02:22:38;15.84;;;10.03;;
54143;SDS011;40050;47.324;18.792;2022-10-23T02:24:51;16.64;;;10.70;;
54143;SDS011;40050;47.324;18.792;2022-10-23T02:26:51;15.68;;;9.84;;
54143;SDS011;40050;47.324;18.792;2022-10-23T02:28:56;13.32;;;9.74;;
54143;SDS011;40050;47.324;18.792;2022-10-23T02:30:55;15.09;;;9.75;;
54143;SDS011;40050;47.324;18.792;2022-10-23T02:32:58;14.15;;;10.14;;
54143;SDS011;40050;47.324;18.792;2022-10-23T02:34:59;13.94;;;9.84;;
54143;SDS011;40050;47.324;18.792;2022-10-23T02:37:00;15.07;;;10.32;;
54143;SDS011;40050;47.324;18.792;2022-10-23T02:39:08;14.62;;;9.26;;
54143;SDS011;40050;47.324;18.792;2022-10-23T02:41:32;14.97;;;9.83;;
54143;SDS011;40050;47.324;18.792;2022-10-23T02:43:29;13.06;;;9.07;;
54143;SDS011;40050;47.324;18.792;2022-10-23T02:45:39;14.57;;;9.27;;
54143;SDS011;40050;47.324;18.792;2022-10-23T02:47:59;13.26;;;8.40;;
54143;SDS011;40050;47.324;18.792;2022-10-23T02:52:30;11.30;;;8.13;;
54143;SDS011;40050;47.324;18.792;2022-10-23T02:56:55;16.04;;;8.92;;
54143;SDS011;40050;47.324;18.792;2022-10-23T02:59:23;15.01;;;8.34;;
54143;SDS011;40050;47.324;18.792;2022-10-23T03:01:12;16.49;;;7.95;;
54143;SDS011;40050;47.324;18.792;2022-10-23T03:03:23;14.36;;;7.17;;
54143;SDS011;40050;47.324;18.792;2022-10-23T03:05:29;15.65;;;8.13;;
54143;SDS011;40050;47.324;18.792;2022-10-23T03:07:26;14.41;;;7.65;;
54143;SDS011;40050;47.324;18.792;2022-10-23T03:09:35;16.76;;;8.51;;
54143;SDS011;40050;47.324;18.792;2022-10-23T03:11:35;13.66;;;7.93;;
54143;SDS011;40050;47.324;18.792;2022-10-23T03:13:36;13.92;;;7.83;;
54143;SDS011;40050;47.324;18.792;2022-10-23T03:15:38;13.21;;;7.64;;
54143;SDS011;40050;47.324;18.792;2022-10-23T03:17:39;13.45;;;7.63;;
54143;SDS011;40050;47.324;18.792;2022-10-23T03:19:41;12.97;;;7.62;;
54143;SDS011;40050;47.324;18.792;2022-10-23T03:21:42;13.13;;;7.42;;
54143;SDS011;40050;47.324;18.792;2022-10-23T03:23:43;12.01;;;7.81;;
54143;SDS011;40050;47.324;18.792;2022-10-23T03:25:45;10.17;;;7.53;;
54143;SDS011;40050;47.324;18.792;2022-10-23T03:27:45;10.89;;;7.63;;
54143;SDS011;40050;47.324;18.792;2022-10-23T03:29:46;9.40;;;6.76;;
54143;SDS011;40050;47.324;18.792;2022-10-23T03:31:47;11.80;;;8.02;;
54143;SDS011;40050;47.324;18.792;2022-10-23T03:33:48;10.74;;;7.05;;
54143;SDS011;40050;47.324;18.792;2022-10-23T03:35:49;11.71;;;7.15;;
54143;SDS011;40050;47.324;18.792;2022-10-23T03:37:50;10.31;;;7.44;;
54143;SDS011;40050;47.324;18.792;2022-10-23T03:39:51;9.63;;;6.97;;
54143;SDS011;40050;47.324;18.792;2022-10-23T03:41:52;10.00;;;7.17;;
54143;SDS011;40050;47.324;18.792;2022-10-23T03:43:53;11.51;;;7.85;;
54143;SDS011;40050;47.324;18.792;2022-10-23T03:45:55;10.35;;;7.36;;
54143;SDS011;40050;47.324;18.792;2022-10-23T03:47:55;8.75;;;6.97;;
54143;SDS011;40050;47.324;18.792;2022-10-23T03:49:56;9.20;;;7.26;;
54143;SDS011;40050;47.324;18.792;2022-10-23T03:51:57;10.29;;;6.69;;
54143;SDS011;40050;47.324;18.792;2022-10-23T03:53:58;9.51;;;7.47;;
54143;SDS011;40050;47.324;18.792;2022-10-23T03:55:59;10.23;;;7.57;;
54143;SDS011;40050;47.324;18.792;2022-10-23T03:58:00;8.92;;;6.61;;
54143;SDS011;40050;47.324;18.792;2022-10-23T04:00:01;9.48;;;6.42;;
54143;SDS011;40050;47.324;18.792;2022-10-23T04:02:02;8.04;;;6.32;;
54143;SDS011;40050;47.324;18.792;2022-10-23T04:04:02;11.24;;;6.61;;
54143;SDS011;40050;47.324;18.792;2022-10-23T04:06:03;11.14;;;6.80;;
54143;SDS011;40050;47.324;18.792;2022-10-23T04:08:04;9.89;;;6.89;;
54143;SDS011;40050;47.324;18.792;2022-10-23T04:10:05;9.88;;;6.89;;
54143;SDS011;40050;47.324;18.792;2022-10-23T04:12:07;9.26;;;6.99;;
54143;SDS011;40050;47.324;18.792;2022-10-23T04:14:09;9.16;;;6.50;;
54143;SDS011;40050;47.324;18.792;2022-10-23T04:16:08;8.08;;;6.59;;
54143;SDS011;40050;47.324;18.792;2022-10-23T04:18:09;9.13;;;6.78;;
54143;SDS011;40050;47.324;18.792;2022-10-23T04:20:10;9.23;;;6.79;;
54143;SDS011;40050;47.324;18.792;2022-10-23T04:22:11;9.57;;;6.98;;
54143;SDS011;40050;47.324;18.792;2022-10-23T04:24:12;8.26;;;6.69;;
54143;SDS011;40050;47.324;18.792;2022-10-23T04:26:13;8.79;;;6.89;;
54143;SDS011;40050;47.324;18.792;2022-10-23T04:28:14;11.01;;;7.56;;
54143;SDS011;40050;47.324;18.792;2022-10-23T04:30:15;11.35;;;7.75;;
54143;SDS011;40050;47.324;18.792;2022-10-23T04:32:16;9.66;;;7.07;;
54143;SDS011;40050;47.324;18.792;2022-10-23T04:34:17;9.93;;;7.56;;
54143;SDS011;40050;47.324;18.792;2022-10-23T04:36:18;9.50;;;6.98;;
54143;SDS011;40050;47.324;18.792;2022-10-23T04:38:19;12.06;;;7.27;;
54143;SDS011;40050;47.324;18.792;2022-10-23T04:40:20;12.61;;;6.69;;
54143;SDS011;40050;47.324;18.792;2022-10-23T04:42:21;11.81;;;7.18;;
54143;SDS011;40050;47.324;18.792;2022-10-23T04:44:22;12.41;;;7.17;;
54143;SDS011;40050;47.324;18.792;2022-10-23T04:46:23;13.11;;;7.07;;
54143;SDS011;40050;47.324;18.792;2022-10-23T04:48:23;13.73;;;6.30;;
54143;SDS011;40050;47.324;18.792;2022-10-23T04:50:24;13.01;;;6.78;;
54143;SDS011;40050;47.324;18.792;2022-10-23T04:52:25;11.23;;;6.68;;
54143;SDS011;40050;47.324;18.792;2022-10-23T04:54:26;16.71;;;6.49;;
54143;SDS011;40050;47.324;18.792;2022-10-23T04:56:28;11.13;;;6.87;;
54143;SDS011;40050;47.324;18.792;2022-10-23T04:58:29;10.85;;;6.77;;
54143;SDS011;40050;47.324;18.792;2022-10-23T05:00:30;15.51;;;6.86;;
54143;SDS011;40050;47.324;18.792;2022-10-23T05:02:31;12.87;;;6.28;;
54143;SDS011;40050;47.324;18.792;2022-10-23T05:04:32;16.30;;;6.86;;
54143;SDS011;40050;47.324;18.792;2022-10-23T05:06:34;12.23;;;6.28;;
54143;SDS011;40050;47.324;18.792;2022-10-23T05:08:34;12.67;;;6.38;;
54143;SDS011;40050;47.324;18.792;2022-10-23T05:10:36;14.41;;;6.47;;
54143;SDS011;40050;47.324;18.792;2022-10-23T05:12:37;9.38;;;6.66;;
54143;SDS011;40050;47.324;18.792;2022-10-23T05:14:38;12.27;;;6.94;;
54143;SDS011;40050;47.324;18.792;2022-10-23T05:16:44;12.52;;;6.85;;
54143;SDS011;40050;47.324;18.792;2022-10-23T05:18:44;17.31;;;5.59;;
54143;SDS011;40050;47.324;18.792;2022-10-23T05:20:46;11.04;;;5.98;;
54143;SDS011;40050;47.324;18.792;2022-10-23T05:22:48;6.66;;;5.69;;
54143;SDS011;40050;47.324;18.792;2022-10-23T05:24:49;7.80;;;5.98;;
54143;SDS011;40050;47.324;18.792;2022-10-23T05:26:50;8.16;;;5.50;;
54143;SDS011;40050;47.324;18.792;2022-10-23T05:28:52;9.92;;;5.70;;
54143;SDS011;40050;47.324;18.792;2022-10-23T05:30:51;14.35;;;5.60;;
54143;SDS011;40050;47.324;18.792;2022-10-23T05:32:54;8.29;;;6.00;;
54143;SDS011;40050;47.324;18.792;2022-10-23T05:34:56;7.14;;;5.71;;
54143;SDS011;40050;47.324;18.792;2022-10-23T05:36:57;11.19;;;6.38;;
54143;SDS011;40050;47.324;18.792;2022-10-23T05:39:00;8.54;;;6.28;;
54143;SDS011;40050;47.324;18.792;2022-10-23T05:41:01;16.09;;;6.47;;
54143;SDS011;40050;47.324;18.792;2022-10-23T05:43:03;7.55;;;6.28;;
54143;SDS011;40050;47.324;18.792;2022-10-23T05:45:04;11.13;;;6.37;;
54143;SDS011;40050;47.324;18.792;2022-10-23T05:47:05;8.14;;;6.94;;
54143;SDS011;40050;47.324;18.792;2022-10-23T05:49:06;11.10;;;6.84;;
54143;SDS011;40050;47.324;18.792;2022-10-23T05:51:08;10.64;;;7.41;;
54143;SDS011;40050;47.324;18.792;2022-10-23T05:53:12;10.70;;;7.02;;
54143;SDS011;40050;47.324;18.792;2022-10-23T05:55:09;10.53;;;6.83;;
54143;SDS011;40050;47.324;18.792;2022-10-23T05:57:11;10.88;;;6.64;;
54143;SDS011;40050;47.324;18.792;2022-10-23T05:59:12;8.88;;;6.73;;
54143;SDS011;40050;47.324;18.792;2022-10-23T06:01:13;10.70;;;7.50;;
54143;SDS011;40050;47.324;18.792;2022-10-23T06:03:13;10.69;;;7.31;;
54143;SDS011;40050;47.324;18.792;2022-10-23T06:05:16;8.86;;;6.82;;
54143;SDS011;40050;47.324;18.792;2022-10-23T06:07:21;9.47;;;7.21;;
54143;SDS011;40050;47.324;18.792;2022-10-23T06:09:18;13.36;;;7.49;;
54143;SDS011;40050;47.324;18.792;2022-10-23T06:11:18;9.27;;;7.49;;
54143;SDS011;40050;47.324;18.792;2022-10-23T06:13:21;12.52;;;7.38;;
54143;SDS011;40050;47.324;18.792;2022-10-23T06:15:22;13.19;;;7.28;;
54143;SDS011;40050;47.324;18.792;2022-10-23T06:17:23;16.35;;;8.13;;
54143;SDS011;40050;47.324;18.792;2022-10-23T06:19:24;16.66;;;8.51;;
54143;SDS011;40050;47.324;18.792;2022-10-23T06:21:25;13.01;;;8.30;;
54143;SDS011;40050;47.324;18.792;2022-10-23T06:23:25;13.29;;;9.24;;
54143;SDS011;40050;47.324;18.792;2022-10-23T06:25:26;16.98;;;9.13;;
54143;SDS011;40050;47.324;18.792;2022-10-23T06:27:27;14.72;;;8.54;;
54143;SDS011;40050;47.324;18.792;2022-10-23T06:29:28;11.65;;;8.63;;
54143;SDS011;40050;47.324;18.792;2022-10-23T06:31:29;16.52;;;8.81;;
54143;SDS011;40050;47.324;18.792;2022-10-23T06:33:30;21.60;;;9.08;;
54143;SDS011;40050;47.324;18.792;2022-10-23T06:35:34;13.00;;;8.41;;
54143;SDS011;40050;47.324;18.792;2022-10-23T06:37:35;13.65;;;8.78;;
54143;SDS011;40050;47.324;18.792;2022-10-23T06:39:36;14.16;;;8.10;;
54143;SDS011;40050;47.324;18.792;2022-10-23T06:41:38;16.88;;;8.38;;
54143;SDS011;40050;47.324;18.792;2022-10-23T06:43:39;21.34;;;8.28;;
54143;SDS011;40050;47.324;18.792;2022-10-23T06:45:40;12.69;;;8.83;;
54143;SDS011;40050;47.324;18.792;2022-10-23T06:47:40;14.76;;;8.17;;
54143;SDS011;40050;47.324;18.792;2022-10-23T06:49:42;16.07;;;8.27;;
54143;SDS011;40050;47.324;18.792;2022-10-23T06:51:45;13.26;;;8.92;;
54143;SDS011;40050;47.324;18.792;2022-10-23T06:53:57;13.33;;;8.83;;
54143;SDS011;40050;47.324;18.792;2022-10-23T06:56:03;11.73;;;8.35;;
54143;SDS011;40050;47.324;18.792;2022-10-23T06:58:06;12.05;;;8.25;;
54143;SDS011;40050;47.324;18.792;2022-10-23T07:00:06;14.79;;;8.25;;
54143;SDS011;40050;47.324;18.792;2022-10-23T07:02:07;12.96;;;8.44;;
54143;SDS011;40050;47.324;18.792;2022-10-23T07:04:07;16.14;;;8.33;;
54143;SDS011;40050;47.324;18.792;2022-10-23T07:06:09;14.53;;;8.60;;
54143;SDS011;40050;47.324;18.792;2022-10-23T07:08:09;20.08;;;8.78;;
54143;SDS011;40050;47.324;18.792;2022-10-23T07:10:13;16.06;;;9.34;;
54143;SDS011;40050;47.324;18.792;2022-10-23T07:12:11;15.39;;;8.59;;
54143;SDS011;40050;47.324;18.792;2022-10-23T07:14:12;23.02;;;8.87;;
54143;SDS011;40050;47.324;18.792;2022-10-23T07:16:16;11.72;;;8.13;;
54143;SDS011;40050;47.324;18.792;2022-10-23T07:18:16;16.50;;;7.67;;
54143;SDS011;40050;47.324;18.792;2022-10-23T07:20:17;19.35;;;7.77;;
54143;SDS011;40050;47.324;18.792;2022-10-23T07:22:20;17.34;;;7.39;;
54143;SDS011;40050;47.324;18.792;2022-10-23T07:24:25;14.05;;;7.29;;
54143;SDS011;40050;47.324;18.792;2022-10-23T07:26:25;10.41;;;7.47;;
54143;SDS011;40050;47.324;18.792;2022-10-23T07:28:28;9.52;;;7.20;;
54143;SDS011;40050;47.324;18.792;2022-10-23T07:30:27;14.49;;;7.30;;
54143;SDS011;40050;47.324;18.792;2022-10-23T07:32:28;9.41;;;7.13;;
54143;SDS011;40050;47.324;18.792;2022-10-23T07:34:29;13.86;;;7.78;;
54143;SDS011;40050;47.324;18.792;2022-10-23T07:36:30;15.33;;;8.15;;
54143;SDS011;40050;47.324;18.792;2022-10-23T07:38:31;12.28;;;7.87;;
54143;SDS011;40050;47.324;18.792;2022-10-23T07:40:33;13.10;;;7.77;;
54143;SDS011;40050;47.324;18.792;2022-10-23T07:42:34;17.94;;;7.60;;
54143;SDS011;40050;47.324;18.792;2022-10-23T07:44:38;11.19;;;7.61;;
54143;SDS011;40050;47.324;18.792;2022-10-23T07:46:39;15.59;;;7.69;;
54143;SDS011;40050;47.324;18.792;2022-10-23T07:48:40;17.41;;;7.59;;
54143;SDS011;40050;47.324;18.792;2022-10-23T07:50:41;11.22;;;7.50;;
54143;SDS011;40050;47.324;18.792;2022-10-23T07:52:44;16.98;;;8.62;;
54143;SDS011;40050;47.324;18.792;2022-10-23T07:54:51;12.58;;;7.67;;
54143;SDS011;40050;47.324;18.792;2022-10-23T07:56:59;19.75;;;7.67;;
54143;SDS011;40050;47.324;18.792;2022-10-23T07:58:58;12.24;;;6.57;;
54143;SDS011;40050;47.324;18.792;2022-10-23T08:00:59;8.68;;;6.47;;
54143;SDS011;40050;47.324;18.792;2022-10-23T08:03:00;28.27;;;6.60;;
54143;SDS011;40050;47.324;18.792;2022-10-23T08:05:01;14.36;;;5.49;;
54143;SDS011;40050;47.324;18.792;2022-10-23T08:07:02;7.87;;;6.17;;
54143;SDS011;40050;47.324;18.792;2022-10-23T08:09:03;9.00;;;6.15;;
54143;SDS011;40050;47.324;18.792;2022-10-23T08:11:04;10.57;;;6.81;;
54143;SDS011;40050;47.324;18.792;2022-10-23T08:13:04;9.80;;;6.99;;
54143;SDS011;40050;47.324;18.792;2022-10-23T08:15:06;10.10;;;6.98;;
54143;SDS011;40050;47.324;18.792;2022-10-23T08:17:07;13.43;;;7.26;;
54143;SDS011;40050;47.324;18.792;2022-10-23T08:19:08;12.99;;;7.63;;
54143;SDS011;40050;47.324;18.792;2022-10-23T08:21:19;9.62;;;7.80;;
54143;SDS011;40050;47.324;18.792;2022-10-23T08:23:17;8.57;;;6.40;;
54143;SDS011;40050;47.324;18.792;2022-10-23T08:25:18;9.97;;;6.96;;
54143;SDS011;40050;47.324;18.792;2022-10-23T08:27:20;9.64;;;7.06;;
54143;SDS011;40050;47.324;18.792;2022-10-23T08:29:21;8.49;;;6.72;;
54143;SDS011;40050;47.324;18.792;2022-10-23T08:31:22;23.70;;;7.69;;
54143;SDS011;40050;47.324;18.792;2022-10-23T08:33:23;14.63;;;8.35;;
54143;SDS011;40050;47.324;18.792;2022-10-23T08:35:24;13.59;;;9.03;;
54143;SDS011;40050;47.324;18.792;2022-10-23T08:37:24;15.94;;;9.69;;
54143;SDS011;40050;47.324;18.792;2022-10-23T08:39:26;23.68;;;11.09;;
54143;SDS011;40050;47.324;18.792;2022-10-23T08:41:28;15.58;;;11.18;;
54143;SDS011;40050;47.324;18.792;2022-10-23T08:43:37;16.92;;;10.70;;
54143;SDS011;40050;47.324;18.792;2022-10-23T08:47:46;15.22;;;10.63;;
54143;SDS011;40050;47.324;18.792;2022-10-23T08:50:05;16.81;;;11.48;;
54143;SDS011;40050;47.324;18.792;2022-10-23T08:52:12;22.75;;;12.24;;
54143;SDS011;40050;47.324;18.792;2022-10-23T08:54:36;20.05;;;12.63;;
54143;SDS011;40050;47.324;18.792;2022-10-23T08:56:40;17.76;;;12.78;;
54143;SDS011;40050;47.324;18.792;2022-10-23T08:59:14;19.60;;;13.16;;
54143;SDS011;40050;47.324;18.792;2022-10-23T09:00:54;18.25;;;12.40;;
54143;SDS011;40050;47.324;18.792;2022-10-23T09:02:59;18.81;;;13.24;;
54143;SDS011;40050;47.324;18.792;2022-10-23T09:04:58;14.45;;;10.88;;
54143;SDS011;40050;47.324;18.792;2022-10-23T09:07:24;14.16;;;10.58;;
54143;SDS011;40050;47.324;18.792;2022-10-23T09:09:31;13.32;;;10.08;;
54143;SDS011;40050;47.324;18.792;2022-10-23T09:11:41;12.61;;;9.90;;
54143;SDS011;40050;47.324;18.792;2022-10-23T09:18:10;14.96;;;11.13;;
54143;SDS011;40050;47.324;18.792;2022-10-23T09:20:18;14.04;;;10.85;;
54143;SDS011;40050;47.324;18.792;2022-10-23T09:22:08;12.31;;;9.54;;
54143;SDS011;40050;47.324;18.792;2022-10-23T09:24:13;16.06;;;10.32;;
54143;SDS011;40050;47.324;18.792;2022-10-23T09:26:15;12.76;;;10.02;;
54143;SDS011;40050;47.324;18.792;2022-10-23T09:28:23;12.58;;;9.55;;
54143;SDS011;40050;47.324;18.792;2022-10-23T09:30:24;11.47;;;9.63;;
54143;SDS011;40050;47.324;18.792;2022-10-23T09:32:32;13.97;;;9.72;;
54143;SDS011;40050;47.324;18.792;2022-10-23T09:34:26;13.54;;;10.38;;
54143;SDS011;40050;47.324;18.792;2022-10-23T09:36:27;13.33;;;10.36;;
54143;SDS011;40050;47.324;18.792;2022-10-23T09:38:35;11.61;;;9.81;;
54143;SDS011;40050;47.324;18.792;2022-10-23T09:41:14;13.06;;;10.39;;
54143;SDS011;40050;47.324;18.792;2022-10-23T09:43:03;12.45;;;9.91;;
54143;SDS011;40050;47.324;18.792;2022-10-23T09:45:19;12.02;;;9.71;;
54143;SDS011;40050;47.324;18.792;2022-10-23T09:47:14;12.60;;;10.12;;
54143;SDS011;40050;47.324;18.792;2022-10-23T09:49:22;12.00;;;9.93;;
54143;SDS011;40050;47.324;18.792;2022-10-23T09:51:18;12.83;;;10.77;;
54143;SDS011;40050;47.324;18.792;2022-10-23T09:53:38;12.75;;;10.59;;
54143;SDS011;40050;47.324;18.792;2022-10-23T09:55:26;13.82;;;11.18;;
54143;SDS011;40050;47.324;18.792;2022-10-23T09:57:41;14.27;;;10.81;;
54143;SDS011;40050;47.324;18.792;2022-10-23T09:59:36;14.88;;;10.88;;
54143;SDS011;40050;47.324;18.792;2022-10-23T10:01:45;14.00;;;11.05;;
54143;SDS011;40050;47.324;18.792;2022-10-23T10:03:49;13.47;;;10.92;;
54143;SDS011;40050;47.324;18.792;2022-10-23T10:06:03;12.67;;;9.90;;
54143;SDS011;40050;47.324;18.792;2022-10-23T10:10:06;14.75;;;11.69;;
54143;SDS011;40050;47.324;18.792;2022-10-23T10:12:59;14.58;;;11.21;;
54143;SDS011;40050;47.324;18.792;2022-10-23T10:16:51;16.14;;;11.39;;
54143;SDS011;40050;47.324;18.792;2022-10-23T10:21:26;14.10;;;11.48;;
54143;SDS011;40050;47.324;18.792;2022-10-23T10:28:30;15.13;;;11.70;;
54143;SDS011;40050;47.324;18.792;2022-10-23T10:30:49;12.82;;;10.75;;
54143;SDS011;40050;47.324;18.792;2022-10-23T10:33:05;15.68;;;11.78;;
54143;SDS011;40050;47.324;18.792;2022-10-23T10:34:57;15.45;;;11.95;;
54143;SDS011;40050;47.324;18.792;2022-10-23T10:39:37;23.90;;;14.35;;
54143;SDS011;40050;47.324;18.792;2022-10-23T10:44:03;33.23;;;18.33;;
54143;SDS011;40050;47.324;18.792;2022-10-23T10:46:19;34.53;;;19.10;;
54143;SDS011;40050;47.324;18.792;2022-10-23T10:50:39;39.67;;;19.33;;
54143;SDS011;40050;47.324;18.792;2022-10-23T10:55:26;38.45;;;20.73;;
54143;SDS011;40050;47.324;18.792;2022-10-23T10:57:26;40.80;;;21.33;;
54143;SDS011;40050;47.324;18.792;2022-10-23T10:59:26;38.99;;;20.56;;
54143;SDS011;40050;47.324;18.792;2022-10-23T11:01:40;39.30;;;20.77;;
54143;SDS011;40050;47.324;18.792;2022-10-23T11:03:40;37.69;;;19.98;;
54143;SDS011;40050;47.324;18.792;2022-10-23T11:05:43;41.16;;;21.83;;
54143;SDS011;40050;47.324;18.792;2022-10-23T11:08:11;29.52;;;16.98;;
54143;SDS011;40050;47.324;18.792;2022-10-23T11:09:59;27.05;;;16.37;;
54143;SDS011;40050;47.324;18.792;2022-10-23T11:12:06;28.88;;;17.12;;
54143;SDS011;40050;47.324;18.792;2022-10-23T11:14:26;30.83;;;18.59;;
54143;SDS011;40050;47.324;18.792;2022-10-23T11:16:18;26.07;;;16.03;;
54143;SDS011;40050;47.324;18.792;2022-10-23T11:18:17;23.85;;;15.44;;
54143;SDS011;40050;47.324;18.792;2022-10-23T11:22:56;16.97;;;12.25;;
54143;SDS011;40050;47.324;18.792;2022-10-23T11:27:21;13.51;;;10.30;;
54143;SDS011;40050;47.324;18.792;2022-10-23T11:29:21;13.10;;;10.30;;
54143;SDS011;40050;47.324;18.792;2022-10-23T11:31:37;13.48;;;10.41;;
54143;SDS011;40050;47.324;18.792;2022-10-23T11:33:58;12.30;;;9.95;;
54143;SDS011;40050;47.324;18.792;2022-10-23T11:36:19;10.95;;;9.19;;
54143;SDS011;40050;47.324;18.792;2022-10-23T11:38:27;11.88;;;9.40;;
54143;SDS011;40050;47.324;18.792;2022-10-23T11:40:52;9.33;;;8.83;;
54143;SDS011;40050;47.324;18.792;2022-10-23T11:43:00;11.54;;;9.12;;
54143;SDS011;40050;47.324;18.792;2022-10-23T11:45:28;11.16;;;8.52;;
54143;SDS011;40050;47.324;18.792;2022-10-23T11:47:30;9.61;;;8.32;;
54143;SDS011;40050;47.324;18.792;2022-10-23T11:49:18;10.02;;;8.53;;
54143;SDS011;40050;47.324;18.792;2022-10-23T11:51:34;9.00;;;8.35;;
54143;SDS011;40050;47.324;18.792;2022-10-23T11:55:32;10.75;;;8.56;;
54143;SDS011;40050;47.324;18.792;2022-10-23T11:57:56;9.74;;;8.75;;
54143;SDS011;40050;47.324;18.792;2022-10-23T11:59:52;9.80;;;8.93;;
54143;SDS011;40050;47.324;18.792;2022-10-23T12:04:22;10.70;;;9.33;;
54143;SDS011;40050;47.324;18.792;2022-10-23T12:06:27;9.93;;;8.75;;
54143;SDS011;40050;47.324;18.792;2022-10-23T12:08:31;10.62;;;9.16;;
54143;SDS011;40050;47.324;18.792;2022-10-23T12:10:43;11.36;;;9.05;;
54143;SDS011;40050;47.324;18.792;2022-10-23T12:12:54;10.49;;;8.66;;
54143;SDS011;40050;47.324;18.792;2022-10-23T12:15:17;9.99;;;8.68;;
54143;SDS011;40050;47.324;18.792;2022-10-23T12:19:22;10.24;;;9.19;;
54143;SDS011;40050;47.324;18.792;2022-10-23T12:21:32;10.89;;;8.51;;
54143;SDS011;40050;47.324;18.792;2022-10-23T12:24:03;10.49;;;8.98;;
54143;SDS011;40050;47.324;18.792;2022-10-23T12:26:19;10.13;;;8.79;;
54143;SDS011;40050;47.324;18.792;2022-10-23T12:30:44;11.98;;;10.34;;
54143;SDS011;40050;47.324;18.792;2022-10-23T12:33:10;13.35;;;10.63;;
54143;SDS011;40050;47.324;18.792;2022-10-23T12:39:31;13.83;;;10.55;;
54143;SDS011;40050;47.324;18.792;2022-10-23T12:41:38;13.42;;;10.95;;
54143;SDS011;40050;47.324;18.792;2022-10-23T12:44:01;13.51;;;11.14;;
54143;SDS011;40050;47.324;18.792;2022-10-23T12:48:20;14.35;;;11.61;;
54143;SDS011;40050;47.324;18.792;2022-10-23T12:50:25;17.35;;;12.40;;
54143;SDS011;40050;47.324;18.792;2022-10-23T12:52:26;17.55;;;11.72;;
54143;SDS011;40050;47.324;18.792;2022-10-23T12:54:29;17.13;;;11.36;;
54143;SDS011;40050;47.324;18.792;2022-10-23T12:56:34;17.93;;;12.14;;
54143;SDS011;40050;47.324;18.792;2022-10-23T12:58:34;26.06;;;14.77;;
54143;SDS011;40050;47.324;18.792;2022-10-23T13:00:38;27.69;;;15.66;;
54143;SDS011;40050;47.324;18.792;2022-10-23T13:03:00;30.39;;;16.46;;
54143;SDS011;40050;47.324;18.792;2022-10-23T13:05:05;32.89;;;16.66;;
54143;SDS011;40050;47.324;18.792;2022-10-23T13:07:06;31.18;;;16.65;;